Time;durP1;ratioP1;P1;durP2;ratioP2;P2;SDS_P1;SDS_P2;PMS_P1;PMS_P2;Temp;Humidity;BMP_temperature;BMP_pressure;BME280_temperature;BME280_humidity;BME280_pressure;Samples;Min_cycle;Max_cycle;Signal;HPM_P1;HPM_P2
2023/08/19 00:02:23;;;;;;;36.00;34.28;;;;;;;20.21;100.00;101154.78;5008423;28;20049;-81
2023/08/19 00:04:50;;;;;;;32.65;30.95;;;;;;;20.16;100.00;101153.94;5009291;28;20084;-81
2023/08/19 00:07:17;;;;;;;36.65;34.75;;;;;;;20.00;100.00;101153.81;5007627;28;20053;-81
2023/08/19 00:09:43;;;;;;;42.88;40.67;;;;;;;19.68;100.00;101145.75;5009945;28;20128;-78
2023/08/19 00:12:12;;;;;;;33.03;31.23;;;;;;;19.63;100.00;101151.84;5010076;28;20046;-81
2023/08/19 00:14:39;;;;;;;34.97;32.88;;;;;;;19.23;100.00;101163.03;5010407;28;20134;-78
2023/08/19 00:17:05;;;;;;;37.35;34.67;;;;;;;19.47;100.00;101168.13;5010354;28;20042;-81
2023/08/19 00:19:32;;;;;;;37.38;35.28;;;;;;;19.97;100.00;101159.72;5004017;28;20058;-81
2023/08/19 00:21:59;;;;;;;40.97;38.97;;;;;;;19.64;100.00;101163.47;5003575;28;20433;-81
2023/08/19 00:24:26;;;;;;;35.03;33.22;;;;;;;20.06;100.00;101170.81;5003207;28;20074;-81
2023/08/19 00:26:53;;;;;;;33.83;32.03;;;;;;;20.14;100.00;101176.56;5000170;28;20050;-81
2023/08/19 00:29:21;;;;;;;35.28;33.47;;;;;;;20.33;100.00;101165.34;5010575;28;20050;-80
2023/08/19 00:31:48;;;;;;;38.85;36.95;;;;;;;20.38;100.00;101164.59;5011062;28;20210;-81
2023/08/19 00:34:15;;;;;;;33.67;31.98;;;;;;;20.24;100.00;101167.75;5007870;28;20050;-81
2023/08/19 00:36:42;;;;;;;31.45;29.85;;;;;;;19.55;100.00;101176.56;4998619;28;20461;-81
2023/08/19 00:39:10;;;;;;;32.47;30.67;;;;;;;20.03;100.00;101179.44;5009302;28;20038;-81
2023/08/19 00:41:36;;;;;;;30.63;28.83;;;;;;;20.03;100.00;101184.81;5009862;28;20395;-78
2023/08/19 00:44:03;;;;;;;30.83;29.13;;;;;;;20.16;100.00;101172.81;5005597;28;20046;-78
2023/08/19 00:46:32;;;;;;;34.42;32.63;;;;;;;19.99;100.00;101179.16;5009232;28;20049;-78
2023/08/19 00:49:02;;;;;;;36.15;34.30;;;;;;;19.73;100.00;101169.22;5009858;28;20053;-80
2023/08/19 00:51:29;;;;;;;31.98;30.27;;;;;;;19.42;100.00;101175.09;5009726;28;20049;-81
2023/08/19 00:53:57;;;;;;;34.65;32.85;;;;;;;19.46;100.00;101164.63;5004347;28;20042;-78
2023/08/19 00:56:24;;;;;;;33.97;32.08;;;;;;;19.04;100.00;101175.22;5007961;28;20514;-78
2023/08/19 00:58:51;;;;;;;32.95;31.25;;;;;;;19.37;100.00;101164.28;5005457;28;20061;-79
2023/08/19 01:01:18;;;;;;;37.63;35.63;;;;;;;19.22;100.00;101162.22;5000394;28;20497;-81
2023/08/19 01:03:46;;;;;;;35.35;33.55;;;;;;;19.42;100.00;101164.31;5001358;28;20049;-80
2023/08/19 01:06:25;;;;;;;35.17;33.47;;;;;;;19.43;100.00;101178.63;5009508;28;20054;-81
2023/08/19 01:09:04;;;;;;;37.00;35.22;;;;;;;19.31;100.00;101186.03;5009890;28;20061;-81
2023/08/19 01:11:50;;;;;;;33.90;32.20;;;;;;;19.25;100.00;101184.34;5009759;28;20046;-78
2023/08/19 01:14:33;;;;;;;34.58;32.78;;;;;;;19.25;100.00;101187.03;5008381;28;20046;-81
2023/08/19 01:17:04;;;;;;;38.35;36.28;;;;;;;19.19;100.00;101176.19;5008967;28;20057;-80
2023/08/19 01:19:33;;;;;;;31.40;29.70;;;;;;;18.64;100.00;101169.03;5009427;28;20060;-81
2023/08/19 01:22:04;;;;;;;33.45;31.75;;;;;;;18.11;100.00;101169.59;5008535;28;20454;-78
2023/08/19 01:24:36;;;;;;;28.58;26.98;;;;;;;17.93;100.00;101176.03;5008941;28;20495;-78
2023/08/19 01:27:04;;;;;;;29.40;27.70;;;;;;;18.20;100.00;101182.38;5007335;28;20046;-81
2023/08/19 01:29:31;;;;;;;32.40;30.70;;;;;;;18.52;100.00;101179.09;5006885;28;20520;-78
2023/08/19 01:31:59;;;;;;;34.25;32.45;;;;;;;18.81;100.00;101174.38;5008794;28;20147;-78
2023/08/19 01:34:26;;;;;;;35.88;34.17;;;;;;;19.02;100.00;101172.75;5008843;28;20050;-81
2023/08/19 01:36:58;;;;;;;41.50;39.40;;;;;;;18.82;100.00;101178.72;5007500;28;20057;-78
2023/08/19 01:39:26;;;;;;;39.73;37.77;;;;;;;18.69;100.00;101182.53;5006104;28;20111;-81
2023/08/19 01:41:55;;;;;;;42.22;40.08;;;;;;;18.38;100.00;101191.25;4999535;28;20046;-80
2023/08/19 01:44:23;;;;;;;34.25;32.40;;;;;;;18.80;100.00;101190.78;5008770;28;20061;-81
2023/08/19 01:46:50;;;;;;;33.47;31.67;;;;;;;19.02;100.00;101190.78;5008626;28;20054;-78
2023/08/19 01:49:17;;;;;;;31.95;30.15;;;;;;;19.08;100.00;101193.28;5009396;28;20409;-81
2023/08/19 01:51:44;;;;;;;32.30;30.63;;;;;;;18.65;100.00;101188.66;5006710;28;20050;-81
2023/08/19 01:54:10;;;;;;;37.72;35.72;;;;;;;17.68;100.00;101195.19;5007104;28;20128;-78
2023/08/19 01:56:38;;;;;;;36.45;34.45;;;;;;;17.78;100.00;101209.63;5006999;28;20056;-78
2023/08/19 01:59:06;;;;;;;34.47;32.58;;;;;;;18.21;100.00;101205.50;5007980;28;20046;-79
2023/08/19 02:01:33;;;;;;;39.30;37.10;;;;;;;18.39;100.00;101199.06;5010270;28;20437;-79
2023/08/19 02:04:00;;;;;;;36.70;34.80;;;;;;;18.88;100.00;101204.63;5012797;28;20052;-78
2023/08/19 02:06:29;;;;;;;29.73;28.02;;;;;;;18.86;100.00;101205.94;5007923;28;20049;-78
2023/08/19 02:08:55;;;;;;;33.50;31.60;;;;;;;18.82;100.00;101208.31;5012455;28;20499;-78
2023/08/19 02:11:22;;;;;;;32.85;31.15;;;;;;;18.66;100.00;101207.25;5010499;28;20058;-78
2023/08/19 02:13:49;;;;;;;32.45;30.75;;;;;;;18.73;100.00;101204.44;5012549;28;20054;-78
2023/08/19 02:16:18;;;;;;;32.97;31.17;;;;;;;18.36;100.00;101201.41;5011909;28;20070;-78
2023/08/19 02:18:44;;;;;;;40.80;38.60;;;;;;;17.33;100.00;101213.03;5012248;28;20064;-78
2023/08/19 02:21:11;;;;;;;37.95;35.85;;;;;;;17.66;100.00;101203.47;5013050;28;20485;-79
2023/08/19 02:23:38;;;;;;;35.30;33.28;;;;;;;17.68;100.00;101206.72;5005196;28;20058;-78
2023/08/19 02:26:05;;;;;;;31.20;29.60;;;;;;;18.28;100.00;101202.66;5005651;28;20045;-78
2023/08/19 02:28:32;;;;;;;31.27;29.58;;;;;;;18.31;100.00;101202.19;5011877;28;20053;-78
2023/08/19 02:31:02;;;;;;;28.23;26.60;;;;;;;18.19;100.00;101207.63;5012314;28;20433;-78
2023/08/19 02:33:30;;;;;;;37.67;35.67;;;;;;;18.25;100.00;101214.72;5009384;28;20045;-78
2023/08/19 02:35:57;;;;;;;38.10;36.15;;;;;;;18.02;100.00;101217.56;5001457;28;20054;-78
2023/08/19 02:38:24;;;;;;;36.83;32.92;;;;;;;18.02;100.00;101213.00;5012295;28;20100;-79
2023/08/19 02:40:52;;;;;;;35.17;33.38;;;;;;;18.29;100.00;101212.34;5012414;28;20065;-78
2023/08/19 02:43:19;;;;;;;40.47;38.47;;;;;;;17.00;100.00;101219.09;5011704;28;20058;-80
2023/08/19 02:45:47;;;;;;;37.03;34.92;;;;;;;17.33;100.00;101218.41;5010476;28;20049;-81
2023/08/19 02:48:14;;;;;;;36.15;34.20;;;;;;;17.12;100.00;101233.28;5009793;28;20461;-81
2023/08/19 02:50:43;;;;;;;28.77;27.13;;;;;;;17.27;100.00;101235.47;5011548;28;20136;-80
2023/08/19 02:53:10;;;;;;;25.92;24.33;;;;;;;17.80;100.00;101241.63;5009411;28;20052;-81
2023/08/19 02:55:40;;;;;;;28.75;27.05;;;;;;;18.11;100.00;101232.22;5011777;28;20053;-81
2023/08/19 02:58:07;;;;;;;34.75;32.67;;;;;;;17.91;100.00;101235.38;5005714;28;20427;-81
2023/08/19 03:00:36;;;;;;;50.15;47.75;;;;;;;18.12;100.00;101224.97;5008536;28;20529;-81
2023/08/19 03:03:05;;;;;;;36.78;34.97;;;;;;;18.36;100.00;101221.06;5010015;28;20093;-81
2023/08/19 03:05:32;;;;;;;37.97;36.08;;;;;;;18.37;100.00;101211.13;5011619;28;20133;-81
2023/08/19 03:08:00;;;;;;;28.25;26.55;;;;;;;18.25;100.00;101198.59;5009927;28;20097;-81
2023/08/19 03:10:27;;;;;;;38.08;36.17;;;;;;;18.55;100.00;101183.97;5010984;28;20065;-80
2023/08/19 03:12:57;;;;;;;32.25;30.45;;;;;;;18.11;100.00;101180.34;5011492;28;20438;-80
2023/08/19 03:15:24;;;;;;;27.77;26.17;;;;;;;17.39;100.00;101176.38;5010689;28;20088;-81
2023/08/19 03:17:51;;;;;;;29.60;27.70;;;;;;;17.96;100.00;101203.22;5005993;28;20045;-81
2023/08/19 03:20:18;;;;;;;26.60;25.10;;;;;;;17.63;100.00;101215.50;5008278;28;20404;-81
2023/08/19 03:22:45;;;;;;;37.45;35.45;;;;;;;16.96;100.00;101223.31;5010570;28;20096;-78
2023/08/19 03:25:13;;;;;;;21.80;20.40;;;;;;;17.78;100.00;101230.31;5009148;28;20430;-78
2023/08/19 03:27:40;;;;;;;22.42;20.92;;;;;;;18.46;100.00;101226.59;5006997;28;20421;-80
2023/08/19 03:30:08;;;;;;;22.75;21.08;;;;;;;18.57;100.00;101235.63;5010417;28;20049;-80
2023/08/19 03:32:35;;;;;;;20.92;19.52;;;;;;;18.70;100.00;101251.44;5010423;28;20429;-78
2023/08/19 03:35:02;;;;;;;23.33;21.08;;;;;;;18.46;100.00;101252.69;5011153;28;20506;-81
2023/08/19 03:37:29;;;;;;;20.90;19.30;;;;;;;18.37;100.00;101262.22;5005605;28;20112;-80
2023/08/19 03:39:56;;;;;;;21.17;19.67;;;;;;;18.48;100.00;101245.16;5007490;28;20050;-78
2023/08/19 03:42:27;;;;;;;20.20;18.52;;;;;;;18.71;100.00;101239.59;5007885;28;20065;-80
2023/08/19 03:44:54;;;;;;;20.05;18.67;;;;;;;18.56;100.00;101231.31;5008950;28;20493;-81
2023/08/19 03:47:21;;;;;;;20.90;19.50;;;;;;;17.71;100.00;101235.78;5010009;28;20065;-81
2023/08/19 03:49:48;;;;;;;19.83;18.42;;;;;;;18.25;100.00;101262.31;5007929;28;20054;-81
2023/08/19 03:52:15;;;;;;;20.52;19.13;;;;;;;17.99;100.00;101264.53;5010005;28;20054;-81
2023/08/19 03:54:42;;;;;;;20.63;19.33;;;;;;;18.56;100.00;101268.97;5010697;28;20481;-81
2023/08/19 03:57:09;;;;;;;21.30;19.70;;;;;;;18.98;100.00;101258.59;5010777;28;20548;-81
2023/08/19 03:59:37;;;;;;;21.20;19.70;;;;;;;19.09;100.00;101256.00;5010604;28;20429;-80
2023/08/19 04:02:04;;;;;;;19.85;18.42;;;;;;;19.21;100.00;101260.25;5006646;28;20049;-78
2023/08/19 04:04:31;;;;;;;20.55;18.80;;;;;;;19.06;100.00;101259.22;5006063;28;20046;-78
2023/08/19 04:06:58;;;;;;;20.73;19.33;;;;;;;19.09;100.00;101274.84;5008011;28;20054;-81
2023/08/19 04:09:25;;;;;;;22.20;20.60;;;;;;;18.45;100.00;101269.88;5009691;28;20049;-81
2023/08/19 04:11:52;;;;;;;19.13;17.77;;;;;;;19.09;100.00;101280.25;5010697;28;20136;-81
2023/08/19 04:14:18;;;;;;;19.17;17.88;;;;;;;19.07;100.00;101277.00;5003485;28;20050;-81
2023/08/19 04:16:47;;;;;;;19.80;18.40;;;;;;;18.84;100.00;101286.91;5009221;28;20049;-81
2023/08/19 04:19:13;;;;;;;21.75;19.95;;;;;;;19.18;100.00;101289.50;5008010;28;20046;-81
2023/08/19 04:21:41;;;;;;;21.05;19.55;;;;;;;19.36;100.00;101283.81;5010142;28;20065;-81
2023/08/19 04:24:08;;;;;;;20.30;18.90;;;;;;;19.58;100.00;101274.94;5010034;28;20056;-81
2023/08/19 04:26:35;;;;;;;19.92;18.52;;;;;;;19.72;100.00;101275.38;5006365;28;20038;-81
2023/08/19 04:29:02;;;;;;;19.88;18.48;;;;;;;19.95;100.00;101275.09;5009127;28;20506;-78
2023/08/19 04:31:28;;;;;;;20.55;19.05;;;;;;;19.31;100.00;101267.63;5005860;28;20058;-81
2023/08/19 04:33:57;;;;;;;20.88;19.38;;;;;;;19.48;100.00;101285.59;5006951;28;20072;-78
2023/08/19 04:36:23;;;;;;;21.33;19.92;;;;;;;19.86;100.00;101272.03;5006435;28;20525;-78
2023/08/19 04:38:50;;;;;;;22.10;20.60;;;;;;;20.12;100.00;101273.09;5007318;28;20718;-78
2023/08/19 04:41:17;;;;;;;22.13;20.63;;;;;;;20.20;100.00;101255.63;5008226;28;20053;-78
2023/08/19 04:43:46;;;;;;;21.20;19.70;;;;;;;20.11;100.00;101263.38;5007950;28;20498;-80
2023/08/19 04:46:13;;;;;;;21.10;19.50;;;;;;;20.48;100.00;101246.38;5005335;28;20128;-79
2023/08/19 04:48:40;;;;;;;21.73;20.33;;;;;;;20.79;100.00;101255.53;5007586;28;20045;-81
2023/08/19 04:51:07;;;;;;;21.90;20.48;;;;;;;20.76;100.00;101252.56;5008215;28;20049;-82
2023/08/19 04:53:34;;;;;;;21.65;20.05;;;;;;;20.87;100.00;101259.63;5003914;28;20115;-81
2023/08/19 04:56:03;;;;;;;21.35;19.95;;;;;;;20.96;100.00;101249.94;5008523;28;20049;-81
2023/08/19 04:58:30;;;;;;;20.50;19.15;;;;;;;21.09;100.00;101248.69;5005981;28;20053;-78
2023/08/19 05:00:57;;;;;;;19.10;17.90;;;;;;;21.28;100.00;101238.22;5005034;28;20486;-78
2023/08/19 05:03:24;;;;;;;18.58;17.38;;;;;;;21.50;100.00;101238.84;5005520;28;20061;-77
2023/08/19 05:05:51;;;;;;;19.35;18.05;;;;;;;21.97;100.00;101231.66;5006707;28;20050;-79
2023/08/19 05:08:19;;;;;;;21.27;19.98;;;;;;;21.96;100.00;101244.34;5009213;28;20042;-79
2023/08/19 05:10:46;;;;;;;22.50;20.90;;;;;;;21.99;100.00;101251.09;5007873;28;20049;-78
2023/08/19 05:13:13;;;;;;;22.35;20.65;;;;;;;21.84;100.00;101262.69;5004702;28;20133;-78
2023/08/19 05:15:40;;;;;;;20.67;19.27;;;;;;;21.98;100.00;101256.78;5006662;28;20067;-78
2023/08/19 05:18:07;;;;;;;21.17;19.50;;;;;;;22.00;100.00;101250.03;5007520;28;20053;-78
2023/08/19 05:20:36;;;;;;;19.63;18.33;;;;;;;22.11;100.00;101240.81;5006692;28;20108;-78
2023/08/19 05:23:03;;;;;;;19.60;18.30;;;;;;;22.25;100.00;101246.56;5005504;28;20045;-79
2023/08/19 05:25:32;;;;;;;21.05;19.55;;;;;;;22.40;100.00;101235.72;5008741;28;20057;-78
2023/08/19 05:27:59;;;;;;;21.27;19.77;;;;;;;22.47;100.00;101229.22;5005955;28;20041;-78
2023/08/19 05:30:26;;;;;;;20.88;19.48;;;;;;;23.09;100.00;101225.28;5005183;28;20498;-78
2023/08/19 05:32:55;;;;;;;19.65;18.30;;;;;;;23.89;100.00;101211.53;5007027;28;20045;-78
2023/08/19 05:35:24;;;;;;;20.00;18.70;;;;;;;24.29;100.00;101216.91;5006863;28;20049;-78
2023/08/19 05:37:51;;;;;;;18.92;17.52;;;;;;;24.47;100.00;101216.19;5008139;28;20050;-78
2023/08/19 05:40:18;;;;;;;18.98;17.67;;;;;;;24.45;100.00;101210.28;5007987;28;20133;-78
2023/08/19 05:42:46;;;;;;;21.30;19.80;;;;;;;24.39;100.00;101220.34;5007424;28;20472;-78
2023/08/19 05:45:13;;;;;;;20.98;19.58;;;;;;;24.33;100.00;101216.06;5005977;28;20515;-78
2023/08/19 05:47:40;;;;;;;20.33;19.02;;;;;;;24.45;100.00;101218.41;5002264;28;20053;-78
2023/08/19 05:50:08;;;;;;;20.50;19.10;;;;;;;24.53;100.00;101209.63;5001466;28;20052;-78
2023/08/19 05:52:35;;;;;;;20.42;19.13;;;;;;;24.52;100.00;101209.94;5002490;28;20058;-78
2023/08/19 05:55:01;;;;;;;22.13;20.63;;;;;;;24.61;100.00;101203.56;5000103;28;20042;-78
2023/08/19 05:57:28;;;;;;;21.95;20.45;;;;;;;25.25;100.00;101196.03;5003354;28;20058;-79
2023/08/19 05:59:56;;;;;;;21.30;19.80;;;;;;;25.00;100.00;101196.34;5006045;28;20525;-78
2023/08/19 06:02:23;;;;;;;22.48;20.88;;;;;;;25.24;100.00;101197.13;5006714;28;20050;-80
2023/08/19 06:04:50;;;;;;;18.75;17.35;;;;;;;24.95;100.00;101194.47;5002540;28;20502;-78
2023/08/19 06:07:25;;;;;;;20.50;19.08;;;;;;;24.92;100.00;101187.72;5006132;28;20521;-81
2023/08/19 06:09:52;;;;;;;20.70;19.10;;;;;;;25.25;100.00;101200.66;5001439;28;20128;-81
2023/08/19 06:12:19;;;;;;;21.50;19.80;;;;;;;25.54;100.00;101206.75;5004017;28;20057;-81
2023/08/19 06:14:46;;;;;;;20.77;19.27;;;;;;;25.62;100.00;101209.91;5003759;28;20050;-81
2023/08/19 06:17:14;;;;;;;22.70;21.10;;;;;;;25.59;100.00;101212.09;5004003;28;20502;-81
2023/08/19 06:19:41;;;;;;;24.73;23.05;;;;;;;25.96;100.00;101220.53;5005643;28;20042;-81
2023/08/19 06:22:08;;;;;;;22.20;20.70;;;;;;;26.21;100.00;101232.94;5000302;28;20752;-81
2023/08/19 06:24:35;;;;;;;22.05;20.52;;;;;;;26.22;100.00;101229.91;5005191;28;20050;-81
2023/08/19 06:27:02;;;;;;;21.83;20.33;;;;;;;26.38;100.00;101221.47;5003515;28;20042;-81
2023/08/19 06:29:28;;;;;;;23.60;22.10;;;;;;;26.47;100.00;101225.09;5003118;28;20054;-80
2023/08/19 06:31:56;;;;;;;24.95;23.35;;;;;;;26.54;100.00;101227.47;5004962;28;20469;-79
2023/08/19 06:34:25;;;;;;;25.23;23.50;;;;;;;26.49;100.00;101223.72;5008068;28;20038;-79
2023/08/19 06:36:53;;;;;;;26.33;24.40;;;;;;;26.45;100.00;101222.69;5002471;28;20524;-78
2023/08/19 06:39:26;;;;;;;23.42;21.92;;;;;;;26.72;100.00;101204.81;5004531;28;20041;-79
2023/08/19 06:41:59;;;;;;;23.85;22.35;;;;;;;26.62;100.00;101205.78;5009593;28;20053;-78
2023/08/19 06:44:29;;;;;;;22.88;21.38;;;;;;;26.71;100.00;101214.88;5009654;28;20108;-78
2023/08/19 06:46:57;;;;;;;23.67;22.08;;;;;;;26.88;100.00;101214.28;5011747;28;20053;-79
2023/08/19 06:49:26;;;;;;;24.70;23.10;;;;;;;26.87;100.00;101214.56;5011117;28;20053;-79
2023/08/19 06:51:54;;;;;;;24.20;22.60;;;;;;;26.88;100.00;101219.72;5011789;28;20053;-78
2023/08/19 06:54:21;;;;;;;22.15;20.55;;;;;;;27.17;100.00;101216.69;5005285;28;20529;-79
2023/08/19 06:56:54;;;;;;;23.10;21.48;;;;;;;27.24;100.00;101210.81;5006261;28;20503;-78
2023/08/19 06:59:25;;;;;;;22.30;20.70;;;;;;;27.28;100.00;101208.28;5009987;28;20052;-81
2023/08/19 07:01:57;;;;;;;22.75;21.15;;;;;;;27.19;100.00;101200.03;5011598;28;20434;-81
2023/08/19 07:04:27;;;;;;;22.75;21.15;;;;;;;27.18;100.00;101203.88;5010166;28;20042;-78
2023/08/19 07:06:55;;;;;;;23.58;21.83;;;;;;;27.51;100.00;101203.69;5006994;28;20426;-80
2023/08/19 07:09:23;;;;;;;25.80;20.50;;;;;;;27.40;100.00;101203.91;5006406;28;20062;-78
2023/08/19 07:11:53;;;;;;;21.25;19.65;;;;;;;27.33;100.00;101200.81;5006279;28;20501;-79
2023/08/19 07:14:20;;;;;;;22.98;21.35;;;;;;;27.27;100.00;101212.13;5002194;28;20434;-78
2023/08/19 07:16:49;;;;;;;22.40;20.80;;;;;;;27.30;100.00;101212.31;5003391;28;20073;-79
2023/08/19 07:19:20;;;;;;;24.75;23.15;;;;;;;27.41;100.00;101207.44;5004336;28;20077;-79
2023/08/19 07:21:48;;;;;;;24.70;23.00;;;;;;;27.28;100.00;101208.28;5001583;28;20047;-78
2023/08/19 07:24:17;;;;;;;23.90;22.20;;;;;;;27.31;100.00;101213.94;5003909;28;20042;-78
2023/08/19 07:26:48;;;;;;;25.88;24.00;;;;;;;27.29;100.00;101213.41;5010004;28;20412;-81
2023/08/19 07:29:16;;;;;;;25.85;23.73;;;;;;;27.29;100.00;101218.88;5010203;28;20045;-79
2023/08/19 07:31:43;;;;;;;25.40;23.80;;;;;;;27.46;100.00;101229.13;5009911;28;20045;-79
2023/08/19 07:34:10;;;;;;;21.58;19.98;;;;;;;27.36;100.00;101232.09;5010134;28;20470;-79
2023/08/19 07:36:37;;;;;;;24.35;22.65;;;;;;;27.51;100.00;101233.69;5010285;28;20121;-78
2023/08/19 07:39:05;;;;;;;25.33;23.63;;;;;;;27.55;100.00;101227.28;5011741;28;20072;-79
2023/08/19 07:41:32;;;;;;;28.25;26.45;;;;;;;27.58;100.00;101234.06;5011863;28;20502;-81
2023/08/19 07:43:59;;;;;;;26.83;25.13;;;;;;;27.64;100.00;101230.91;5011288;28;20100;-81
2023/08/19 07:46:26;;;;;;;22.48;20.88;;;;;;;27.61;100.00;101230.72;5010665;28;20050;-81
2023/08/19 07:48:53;;;;;;;25.23;23.63;;;;;;;27.60;100.00;101231.84;5009923;28;20508;-81
2023/08/19 07:51:21;;;;;;;22.98;21.48;;;;;;;27.66;100.00;101216.13;5008468;28;20053;-81
2023/08/19 07:53:47;;;;;;;21.23;19.38;;;;;;;27.77;100.00;101234.69;5007014;28;20516;-78
2023/08/19 07:56:16;;;;;;;21.55;19.85;;;;;;;27.99;100.00;101235.81;5006000;28;20050;-78
2023/08/19 07:58:44;;;;;;;21.40;19.85;;;;;;;28.09;100.00;101241.06;5006935;28;20061;-81
2023/08/19 08:01:11;;;;;;;22.17;20.58;;;;;;;28.18;100.00;101230.19;5003177;28;20046;-81
2023/08/19 08:03:38;;;;;;;24.63;22.83;;;;;;;28.35;100.00;101227.53;5004939;28;20100;-81
2023/08/19 08:06:05;;;;;;;22.67;20.98;;;;;;;28.58;100.00;101222.06;5005580;28;20045;-81
2023/08/19 08:08:32;;;;;;;23.77;21.10;;;;;;;28.66;100.00;101222.09;5008185;28;20049;-81
2023/08/19 08:10:59;;;;;;;22.83;21.13;;;;;;;28.85;100.00;101221.81;5007571;28;20428;-81
2023/08/19 08:13:28;;;;;;;25.20;23.40;;;;;;;28.87;100.00;101232.47;5004714;28;20580;-81
2023/08/19 08:15:55;;;;;;;26.10;24.40;;;;;;;29.05;100.00;101220.47;5006673;28;20165;-81
2023/08/19 08:18:21;;;;;;;24.05;22.55;;;;;;;29.71;100.00;101220.34;5004755;28;20097;-78
2023/08/19 08:20:48;;;;;;;25.30;23.50;;;;;;;29.87;100.00;101216.00;5008323;28;20054;-78
2023/08/19 08:23:15;;;;;;;21.80;20.27;;;;;;;29.90;100.00;101215.38;5002155;28;20522;-78
2023/08/19 08:25:42;;;;;;;22.65;21.05;;;;;;;30.29;100.00;101216.28;5006524;28;20461;-78
2023/08/19 08:28:09;;;;;;;21.92;20.52;;;;;;;30.35;100.00;101208.69;5008036;28;20046;-79
2023/08/19 08:30:37;;;;;;;22.33;20.83;;;;;;;30.40;100.00;101208.47;5003319;28;20045;-79
2023/08/19 08:33:05;;;;;;;24.10;22.40;;;;;;;30.15;100.00;101217.56;5010341;28;20070;-79
2023/08/19 08:35:32;;;;;;;22.60;21.10;;;;;;;30.61;100.00;101222.25;5006921;28;20049;-78
2023/08/19 08:37:59;;;;;;;23.70;22.10;;;;;;;30.69;100.00;101217.88;5010044;28;20072;-78
2023/08/19 08:40:26;;;;;;;27.05;25.35;;;;;;;30.84;100.00;101217.34;5010383;28;20445;-79
2023/08/19 08:42:54;;;;;;;26.67;24.92;;;;;;;30.91;100.00;101216.81;5010653;28;20050;-79
2023/08/19 08:45:22;;;;;;;27.35;25.65;;;;;;;30.91;100.00;101214.88;5011187;28;20128;-78
2023/08/19 08:47:52;;;;;;;23.05;21.45;;;;;;;31.05;100.00;101227.56;5010129;28;20502;-79
2023/08/19 08:50:21;;;;;;;25.50;23.80;;;;;;;31.17;100.00;101216.66;5010475;28;20050;-79
2023/08/19 08:52:48;;;;;;;24.65;23.05;;;;;;;31.26;100.00;101220.16;5010053;28;20065;-81
2023/08/19 08:55:15;;;;;;;27.13;25.25;;;;;;;31.31;100.00;101210.91;5010174;28;20052;-79
2023/08/19 08:57:42;;;;;;;24.63;23.02;;;;;;;31.27;98.30;101208.03;5010363;28;20057;-79
2023/08/19 09:00:11;;;;;;;23.45;21.77;;;;;;;31.43;100.00;101211.78;5010303;28;20083;-79
2023/08/19 09:02:39;;;;;;;22.63;21.02;;;;;;;30.94;100.00;101207.94;5001725;28;20046;-82
2023/08/19 09:05:09;;;;;;;22.15;20.55;;;;;;;30.08;100.00;101207.13;5006864;28;20046;-79
2023/08/19 09:07:39;;;;;;;21.90;20.30;;;;;;;30.66;100.00;101204.84;5007902;28;20506;-79
2023/08/19 09:10:11;;;;;;;25.65;23.10;;;;;;;30.50;100.00;101205.41;5007175;28;20045;-79
2023/08/19 09:12:41;;;;;;;22.50;20.90;;;;;;;30.55;100.00;101204.38;5006180;28;20112;-79
2023/08/19 09:15:10;;;;;;;23.77;22.08;;;;;;;30.44;100.00;101214.94;5010262;28;20077;-78
2023/08/19 09:17:38;;;;;;;25.70;23.35;;;;;;;30.60;100.00;101209.69;5009695;28;20038;-79
2023/08/19 09:20:07;;;;;;;23.73;21.92;;;;;;;30.38;100.00;101197.06;5010226;28;20058;-81
2023/08/19 09:22:37;;;;;;;23.60;21.70;;;;;;;30.18;100.00;101203.22;5010063;28;20441;-81
2023/08/19 09:25:07;;;;;;;23.92;22.02;;;;;;;30.35;100.00;101198.53;5007534;28;20514;-81
2023/08/19 09:27:33;;;;;;;24.50;22.70;;;;;;;30.56;100.00;101195.84;5010110;28;20042;-81
2023/08/19 09:30:00;;;;;;;31.75;21.60;;;;;;;30.64;100.00;101190.66;5010006;28;20516;-81
2023/08/19 09:32:29;;;;;;;22.90;21.20;;;;;;;30.26;100.00;101191.44;5009804;28;20073;-81
2023/08/19 09:35:04;;;;;;;23.10;21.40;;;;;;;29.87;100.00;101185.91;5010536;28;20045;-81
2023/08/19 09:37:31;;;;;;;23.92;22.02;;;;;;;30.68;100.00;101194.31;5006825;28;20054;-82
2023/08/19 09:39:59;;;;;;;23.13;21.23;;;;;;;30.76;100.00;101196.22;5009308;28;20045;-81
2023/08/19 09:42:27;;;;;;;23.52;21.73;;;;;;;31.32;100.00;101196.03;5003382;28;20042;-80
2023/08/19 09:44:54;;;;;;;23.38;21.58;;;;;;;31.31;100.00;101192.50;5006538;28;20433;-81
2023/08/19 09:47:23;;;;;;;23.60;21.70;;;;;;;30.89;100.00;101181.50;5007413;28;20050;-81
2023/08/19 09:49:54;;;;;;;21.30;19.70;;;;;;;29.49;100.00;101183.00;5005285;28;20575;-79
2023/08/19 09:52:20;;;;;;;22.23;20.52;;;;;;;31.24;100.00;101173.03;5006622;28;20038;-79
2023/08/19 09:54:52;;;;;;;25.10;23.20;;;;;;;30.18;100.00;101181.31;5004807;28;20061;-79
2023/08/19 09:57:32;;;;;;;24.33;22.52;;;;;;;31.12;100.00;101179.25;5006841;28;20119;-79
2023/08/19 09:59:59;;;;;;;23.65;21.80;;;;;;;32.32;94.16;101181.19;5005373;28;20054;-79
2023/08/19 10:02:27;;;;;;;26.10;24.10;;;;;;;31.71;100.00;101173.59;5004538;28;20506;-79
2023/08/19 10:04:54;;;;;;;25.70;23.80;;;;;;;30.12;100.00;101165.03;5003195;28;20509;-79
2023/08/19 10:07:25;;;;;;;27.55;25.60;;;;;;;31.63;100.00;101168.19;5007226;28;20050;-79
2023/08/19 10:09:55;;;;;;;28.27;26.27;;;;;;;32.30;100.00;101169.72;5002984;28;20057;-78
2023/08/19 10:12:24;;;;;;;29.98;27.77;;;;;;;32.94;91.20;101168.22;5006321;28;20486;-79
2023/08/19 10:14:57;;;;;;;29.38;27.17;;;;;;;32.54;98.60;101162.66;5000376;28;20042;-79
2023/08/19 10:17:26;;;;;;;31.08;28.20;;;;;;;32.83;98.73;101158.84;5008362;28;20049;-78
2023/08/19 10:20:00;;;;;;;32.75;30.55;;;;;;;33.21;99.93;101152.94;5009614;28;20054;-81
2023/08/19 10:22:32;;;;;;;36.42;34.13;;;;;;;32.50;99.10;101151.56;5008180;28;20450;-81
2023/08/19 10:24:59;;;;;;;37.97;35.67;;;;;;;31.68;100.00;101156.97;5009890;28;20419;-81
2023/08/19 10:27:28;;;;;;;33.80;31.70;;;;;;;31.62;100.00;101163.81;5011586;28;20307;-81
2023/08/19 10:29:59;;;;;;;35.97;33.47;;;;;;;31.32;100.00;101158.44;5008330;28;20054;-81
2023/08/19 10:32:27;;;;;;;34.55;32.30;;;;;;;31.58;100.00;101152.72;5010164;28;20073;-80
2023/08/19 10:35:03;;;;;;;33.33;31.13;;;;;;;30.88;100.00;101159.91;5007908;28;20034;-79
2023/08/19 10:37:30;;;;;;;36.35;34.05;;;;;;;31.86;100.00;101154.84;5007876;28;20069;-79
2023/08/19 10:40:06;;;;;;;35.58;33.38;;;;;;;31.59;100.00;101154.34;5009969;28;20081;-79
2023/08/19 10:42:34;;;;;;;32.58;30.58;;;;;;;31.96;99.37;101148.19;5012799;28;20691;-81
2023/08/19 10:45:02;;;;;;;37.78;35.38;;;;;;;31.50;100.00;101145.41;5009036;28;20065;-78
2023/08/19 10:47:29;;;;;;;34.95;32.65;;;;;;;31.91;100.00;101136.25;5008025;28;20100;-78
2023/08/19 10:50:04;;;;;;;33.75;31.45;;;;;;;32.38;95.68;101132.31;5005675;28;20437;-78
2023/08/19 10:52:31;;;;;;;30.95;28.80;;;;;;;32.66;95.92;101134.38;5009629;28;20077;-78
2023/08/19 10:55:00;;;;;;;33.15;30.95;;;;;;;32.70;97.46;101124.28;5012371;28;20050;-79
2023/08/19 10:57:27;;;;;;;31.33;29.23;;;;;;;31.82;100.00;101131.97;5010633;28;20509;-81
2023/08/19 10:59:57;;;;;;;31.85;29.65;;;;;;;31.83;100.00;101128.09;5008910;28;20517;-81
2023/08/19 11:02:24;;;;;;;28.05;26.05;;;;;;;32.12;99.43;101124.38;5011607;28;20046;-82
2023/08/19 11:04:52;;;;;;;25.95;23.95;;;;;;;32.87;90.44;101115.75;5010584;28;20506;-82
2023/08/19 11:07:20;;;;;;;28.00;26.00;;;;;;;32.66;94.75;101123.38;5011336;28;20081;-81